createdAt,value
2023-01-22T06:47:54.088Z,19.77
2023-01-22T06:50:24.352Z,19.13
2023-01-22T06:52:53.392Z,18.98
2023-01-22T06:55:22.573Z,18.67
2023-01-22T06:57:51.974Z,18.67
2023-01-22T07:00:21.425Z,18.80
2023-01-22T07:02:50.708Z,22.48
2023-01-22T07:05:23.262Z,15.20
2023-01-22T07:07:55.835Z,15.67
2023-01-22T07:10:24.645Z,17.10
2023-01-22T07:12:57.718Z,16.70
2023-01-22T07:15:27.647Z,14.67
2023-01-22T07:17:56.994Z,14.20
2023-01-22T07:20:26.375Z,17.98
2023-01-22T07:22:59.219Z,27.95
2023-01-22T07:25:29.191Z,38.28
2023-01-22T07:28:02.319Z,37.38
2023-01-22T07:30:32.062Z,44.97
2023-01-22T07:33:02.254Z,48.58
2023-01-22T07:35:31.781Z,42.72
2023-01-22T07:38:01.692Z,45.45
2023-01-22T07:40:31.160Z,49.58
2023-01-22T07:42:59.718Z,23.67
2023-01-22T07:45:29.120Z,18.88
2023-01-22T07:48:01.073Z,29.23
2023-01-22T07:50:33.252Z,71.57
2023-01-22T07:53:02.325Z,29.20
2023-01-22T07:55:32.245Z,93.72
2023-01-22T07:58:03.270Z,99.07
2023-01-22T08:00:34.637Z,21.55
2023-01-22T08:03:12.516Z,23.38
2023-01-22T08:05:42.113Z,22.02
2023-01-22T08:08:19.494Z,18.92
2023-01-22T08:10:48.713Z,26.35
2023-01-22T08:13:17.747Z,17.63
2023-01-22T08:15:46.935Z,17.40
2023-01-22T08:18:17.399Z,16.92
2023-01-22T08:20:46.791Z,19.58
2023-01-22T08:23:15.791Z,20.10
2023-01-22T08:25:44.752Z,17.25
2023-01-22T08:28:13.416Z,18.55
2023-01-22T08:30:46.412Z,17.98
2023-01-22T08:33:17.254Z,22.13
2023-01-22T08:35:46.468Z,35.35
2023-01-22T08:38:15.476Z,22.02
2023-01-22T08:40:44.308Z,22.77
2023-01-22T08:43:15.575Z,29.27
2023-01-22T08:45:46.051Z,20.77
2023-01-22T08:48:14.928Z,20.52
2023-01-22T08:50:44.068Z,19.10
2023-01-22T08:53:12.893Z,33.55
2023-01-22T08:55:41.699Z,29.23
2023-01-22T08:58:10.631Z,30.45
2023-01-22T09:00:40.147Z,48.47
2023-01-22T09:03:09.275Z,20.98
2023-01-22T09:05:41.520Z,24.73
2023-01-22T09:08:11.315Z,21.90
2023-01-22T09:10:40.097Z,21.40
2023-01-22T09:13:09.593Z,23.50
2023-01-22T09:15:38.653Z,22.48
2023-01-22T09:18:08.054Z,21.95
2023-01-22T09:20:40.412Z,20.73
2023-01-22T09:23:09.600Z,23.67
2023-01-22T09:25:38.735Z,22.60
2023-01-22T09:28:10.141Z,20.33
2023-01-22T09:30:43.658Z,19.77
2023-01-22T09:33:12.645Z,18.98
2023-01-22T09:35:41.189Z,21.25
2023-01-22T09:38:16.725Z,20.02
2023-01-22T09:41:00.191Z,17.08
2023-01-22T09:43:33.925Z,16.38
2023-01-22T09:46:15.100Z,17.95
2023-01-22T09:48:48.595Z,20.92
2023-01-22T09:51:18.154Z,21.63
2023-01-22T09:53:56.581Z,22.73
2023-01-22T09:56:35.096Z,28.35
2023-01-22T09:59:07.921Z,38.40
2023-01-22T10:01:38.194Z,25.25
2023-01-22T10:04:14.465Z,31.60
2023-01-22T10:06:46.437Z,47.45
2023-01-22T10:09:20.535Z,33.58
2023-01-22T10:11:54.520Z,48.30
2023-01-22T10:14:27.707Z,68.32
2023-01-22T10:17:00.637Z,72.80
2023-01-22T10:19:43.586Z,97.10
2023-01-22T10:22:20.818Z,64.22
2023-01-22T10:24:50.185Z,70.50
2023-01-22T10:27:23.263Z,71.85
2023-01-22T10:30:13.285Z,95.45
2023-01-22T10:32:42.562Z,35.53
2023-01-22T10:35:22.384Z,65.78
2023-01-22T10:37:55.140Z,101.78
2023-01-22T10:40:26.850Z,104.82
2023-01-22T10:43:13.876Z,204.75
2023-01-22T10:45:57.152Z,112.60
2023-01-22T10:48:26.355Z,173.15
2023-01-22T10:51:14.356Z,30.63
2023-01-22T10:54:42.402Z,25.75
2023-01-22T10:57:34.656Z,24.00
2023-01-22T11:00:24.461Z,26.38
2023-01-22T11:02:53.497Z,25.00
